Key West, Florida
Current Conditions -  °F | °C
As of 9:53 PM on Monday 26 Jan 2015 (Local Time) from KEYW Reporting Station
Broken Clouds Broken Clouds  
Wind Chill: 20°   Ceiling: 4400
Heat Index: 20°   Visibility: 10mi
Dew Point: 12°   Wind: 18mph
Humidity: 59%   Direction: 300°WNW
Pressure: 30.02"   Gusts: NA
Location:  24.55°N, 81.8°W
Report Text: KEYW 270253Z AUTO 30016KT 10SM BKN044 20/12 A3002 RMK AO2 SLP163 T02000117 51009
Loading
Personal Weather Stations






























Interactive Weather Map New forecast layout! Learn more

10-Day Weather Forecast

Advertisements
Track Severe Weather on mobile